Time;durP1;ratioP1;P1;durP2;ratioP2;P2;SDS_P1;SDS_P2;PMS_P1;PMS_P2;Temp;Humidity;BMP_temperature;BMP_pressure;BME280_temperature;BME280_humidity;BME280_pressure;Samples;Min_cycle;Max_cycle;Signal;HPM_P1;HPM_P2
2022/07/03 00:00:02;;;;;;;8.43;6.28;;;;;;;;;;5101444;28;20035;-70
2022/07/03 00:02:27;;;;;;;6.68;5.38;;;;;;;;;;5093685;28;20032;-70
2022/07/03 00:04:53;;;;;;;6.15;5.55;;;;;;;;;;5100011;28;20068;-69
2022/07/03 00:07:18;;;;;;;11.30;6.97;;;;;;;;;;5100910;28;20114;-70
2022/07/03 00:09:44;;;;;;;7.32;6.45;;;;;;;;;;5086689;28;20034;-69
2022/07/03 00:12:09;;;;;;;11.25;6.43;;;;;;;;;;5097571;27;20031;-70
2022/07/03 00:14:34;;;;;;;10.80;6.60;;;;;;;;;;5093796;28;20019;-69
2022/07/03 00:17:00;;;;;;;8.52;6.43;;;;;;;;;;5098778;28;20016;-69
2022/07/03 00:19:25;;;;;;;9.25;6.60;;;;;;;;;;5089858;28;20032;-70
2022/07/03 00:22:01;;;;;;;9.10;6.55;;;;;;;;;;5099911;28;20035;-70
2022/07/03 00:24:43;;;;;;;6.90;6.10;;;;;;;;;;5096182;28;20033;-69
2022/07/03 00:27:09;;;;;;;10.45;6.72;;;;;;;;;;5089004;28;20510;-70
2022/07/03 00:29:40;;;;;;;10.77;6.43;;;;;;;;;;5100738;28;20106;-70
2022/07/03 00:32:12;;;;;;;13.75;6.15;;;;;;;;;;5092294;28;20438;-69
2022/07/03 00:34:39;;;;;;;8.32;6.53;;;;;;;;;;5096823;28;20039;-70
2022/07/03 00:37:08;;;;;;;6.95;6.32;;;;;;;;;;5090778;28;20024;-69
2022/07/03 00:39:38;;;;;;;6.83;6.23;;;;;;;;;;5091330;28;20027;-69
2022/07/03 00:42:05;;;;;;;8.05;6.03;;;;;;;;;;5095594;28;20272;-69
2022/07/03 00:44:33;;;;;;;7.53;5.75;;;;;;;;;;5100753;28;20106;-71
2022/07/03 00:46:58;;;;;;;7.25;5.82;;;;;;;;;;5099233;28;20085;-70
2022/07/03 00:49:24;;;;;;;8.23;6.65;;;;;;;;;;5090593;28;20023;-69
2022/07/03 00:51:53;;;;;;;7.63;6.40;;;;;;;;;;5096534;28;20492;-70
2022/07/03 00:54:21;;;;;;;6.90;6.23;;;;;;;;;;5100521;28;20080;-70
2022/07/03 00:56:49;;;;;;;7.90;6.00;;;;;;;;;;5094134;28;20099;-69
2022/07/03 00:59:14;;;;;;;7.78;6.20;;;;;;;;;;5088285;28;20036;-70
2022/07/03 01:01:40;;;;;;;7.18;6.40;;;;;;;;;;5098187;28;20024;-69
2022/07/03 01:04:22;;;;;;;8.45;6.40;;;;;;;;;;5088578;28;20032;-69
2022/07/03 01:07:07;;;;;;;6.80;5.95;;;;;;;;;;5087152;28;20019;-70
2022/07/03 01:09:53;;;;;;;9.02;6.50;;;;;;;;;;5082735;28;20047;-71
2022/07/03 01:12:37;;;;;;;7.85;7.05;;;;;;;;;;5040977;28;20061;-70
2022/07/03 01:15:11;;;;;;;10.63;6.10;;;;;;;;;;5098013;28;20027;-68
2022/07/03 01:17:40;;;;;;;10.18;6.20;;;;;;;;;;5084053;28;20024;-69
2022/07/03 01:20:06;;;;;;;10.73;6.93;;;;;;;;;;5091779;28;20106;-69
2022/07/03 01:22:34;;;;;;;9.45;6.85;;;;;;;;;;5091822;28;20023;-69
2022/07/03 01:24:59;;;;;;;11.23;6.65;;;;;;;;;;5093136;28;20037;-68
2022/07/03 01:27:33;;;;;;;10.65;7.40;;;;;;;;;;5089081;28;20027;-70
2022/07/03 01:30:10;;;;;;;8.40;6.20;;;;;;;;;;5099374;28;20122;-70
2022/07/03 01:32:43;;;;;;;7.18;5.40;;;;;;;;;;5097295;28;20110;-71
2022/07/03 01:35:11;;;;;;;7.78;5.45;;;;;;;;;;5099420;28;20049;-70
2022/07/03 01:37:38;;;;;;;11.00;6.00;;;;;;;;;;5089148;28;20069;-70
2022/07/03 01:40:04;;;;;;;9.73;6.78;;;;;;;;;;5099394;28;20023;-70
2022/07/03 01:42:32;;;;;;;8.45;6.47;;;;;;;;;;5088541;28;20331;-71
2022/07/03 01:44:59;;;;;;;9.43;7.57;;;;;;;;;;5090799;28;20028;-71
2022/07/03 01:47:24;;;;;;;7.40;5.70;;;;;;;;;;5099067;28;20110;-70
2022/07/03 01:49:51;;;;;;;7.45;6.45;;;;;;;;;;5099605;27;20107;-69
2022/07/03 01:52:17;;;;;;;9.55;6.30;;;;;;;;;;5098898;27;20051;-69
2022/07/03 01:54:44;;;;;;;7.53;5.80;;;;;;;;;;5099961;28;20028;-70
2022/07/03 01:57:09;;;;;;;10.13;6.10;;;;;;;;;;5094470;28;20024;-71
2022/07/03 01:59:35;;;;;;;6.65;5.97;;;;;;;;;;5094207;28;20080;-71
2022/07/03 02:02:08;;;;;;;7.38;6.22;;;;;;;;;;5099785;28;20912;-70
2022/07/03 02:04:39;;;;;;;9.93;7.50;;;;;;;;;;5098517;28;20036;-71
2022/07/03 02:07:08;;;;;;;8.70;6.60;;;;;;;;;;5099830;28;20116;-70
2022/07/03 02:10:11;;;;;;;9.90;6.93;;;;;;;;;;5097808;28;20435;-71
2022/07/03 02:12:39;;;;;;;10.23;6.45;;;;;;;;;;4998817;28;20289;-72
2022/07/03 02:15:06;;;;;;;7.95;7.00;;;;;;;;;;4990365;28;20034;-70
2022/07/03 02:17:45;;;;;;;8.35;6.30;;;;;;;;;;4999247;28;20064;-71
2022/07/03 02:20:11;;;;;;;8.93;6.65;;;;;;;;;;4988939;28;20065;-71
2022/07/03 02:22:40;;;;;;;7.05;6.35;;;;;;;;;;4999601;28;20453;-71
2022/07/03 02:25:15;;;;;;;8.82;6.25;;;;;;;;;;4997973;28;20038;-72
2022/07/03 02:27:47;;;;;;;8.80;6.30;;;;;;;;;;5000313;28;20069;-70
2022/07/03 02:30:13;;;;;;;6.05;5.10;;;;;;;;;;4972850;28;20061;-71
2022/07/03 02:32:43;;;;;;;11.63;6.97;;;;;;;;;;4997098;28;20046;-72
2022/07/03 02:35:11;;;;;;;9.88;6.57;;;;;;;;;;4998589;28;20321;-70
2022/07/03 02:37:48;;;;;;;13.93;7.22;;;;;;;;;;4997562;28;20421;-71
2022/07/03 02:40:26;;;;;;;7.43;6.28;;;;;;;;;;4997080;28;20029;-70
2022/07/03 02:43:00;;;;;;;8.38;6.07;;;;;;;;;;5020474;28;20044;-69
2022/07/03 02:45:29;;;;;;;9.45;6.78;;;;;;;;;;5088121;28;20032;-71
2022/07/03 02:47:54;;;;;;;7.43;6.73;;;;;;;;;;5071636;28;20439;-70
2022/07/03 02:50:24;;;;;;;7.22;6.53;;;;;;;;;;5090898;28;20044;-70
2022/07/03 02:53:14;;;;;;;8.65;7.68;;;;;;;;;;5088396;28;20044;-70
2022/07/03 02:55:42;;;;;;;7.03;6.40;;;;;;;;;;5096474;28;20057;-70
2022/07/03 02:58:36;;;;;;;6.80;6.25;;;;;;;;;;5097850;28;20028;-71
2022/07/03 03:01:06;;;;;;;8.82;6.88;;;;;;;;;;5029176;28;20029;-69
2022/07/03 03:03:32;;;;;;;7.03;6.25;;;;;;;;;;5029317;28;20072;-70
2022/07/03 03:06:17;;;;;;;7.70;6.50;;;;;;;;;;5019758;28;20088;-70
2022/07/03 03:08:49;;;;;;;7.28;6.45;;;;;;;;;;5026255;28;20126;-69
2022/07/03 03:11:21;;;;;;;13.27;7.43;;;;;;;;;;5020040;28;20065;-72
2022/07/03 03:13:49;;;;;;;10.40;7.20;;;;;;;;;;5030639;28;20064;-70
2022/07/03 03:16:14;;;;;;;8.38;6.78;;;;;;;;;;5027984;28;20041;-70
2022/07/03 03:18:41;;;;;;;7.97;7.20;;;;;;;;;;5030173;28;20484;-69
2022/07/03 03:21:08;;;;;;;8.95;6.57;;;;;;;;;;5028381;28;20913;-70
2022/07/03 03:23:50;;;;;;;7.95;6.60;;;;;;;;;;5031372;28;20056;-71
2022/07/03 03:26:28;;;;;;;20.10;8.02;;;;;;;;;;5029913;28;20066;-70
2022/07/03 03:28:54;;;;;;;13.25;6.70;;;;;;;;;;5030246;28;20553;-72
2022/07/03 03:31:20;;;;;;;8.02;6.15;;;;;;;;;;5030081;28;20049;-70
2022/07/03 03:33:46;;;;;;;9.07;7.38;;;;;;;;;;5030838;28;20052;-71
2022/07/03 03:36:13;;;;;;;10.80;7.22;;;;;;;;;;5030048;28;20029;-69
2022/07/03 03:38:38;;;;;;;11.93;7.40;;;;;;;;;;5095770;28;20030;-70
2022/07/03 03:41:04;;;;;;;6.90;5.88;;;;;;;;;;5096851;28;20374;-71
2022/07/03 03:43:30;;;;;;;9.98;6.88;;;;;;;;;;5095402;28;20063;-69
2022/07/03 03:45:56;;;;;;;8.70;6.97;;;;;;;;;;5096836;28;20024;-70
2022/07/03 03:48:21;;;;;;;12.55;7.00;;;;;;;;;;5097076;28;20448;-69
2022/07/03 03:50:46;;;;;;;8.77;6.65;;;;;;;;;;5099955;28;20028;-70
2022/07/03 03:53:12;;;;;;;9.30;7.28;;;;;;;;;;5101497;28;20056;-69
2022/07/03 03:55:37;;;;;;;7.20;6.25;;;;;;;;;;5099883;28;20430;-69
2022/07/03 03:58:04;;;;;;;7.55;6.40;;;;;;;;;;5101682;28;20030;-68
2022/07/03 04:00:30;;;;;;;8.30;7.50;;;;;;;;;;5101121;28;20040;-70
2022/07/03 04:02:55;;;;;;;12.32;6.88;;;;;;;;;;5098714;28;20023;-69
2022/07/03 04:05:20;;;;;;;11.25;6.97;;;;;;;;;;5099600;28;20035;-69
2022/07/03 04:07:46;;;;;;;9.95;6.43;;;;;;;;;;5094547;28;20031;-70
2022/07/03 04:10:11;;;;;;;9.48;6.70;;;;;;;;;;5098668;28;20026;-71
2022/07/03 04:12:37;;;;;;;9.70;7.45;;;;;;;;;;5100606;28;20399;-70
2022/07/03 04:15:02;;;;;;;8.57;7.45;;;;;;;;;;5100317;28;20101;-70
2022/07/03 04:17:28;;;;;;;9.40;7.57;;;;;;;;;;5100720;28;20072;-70
2022/07/03 04:19:53;;;;;;;10.80;7.63;;;;;;;;;;5098767;28;20019;-70
2022/07/03 04:22:18;;;;;;;8.77;7.97;;;;;;;;;;5099687;28;20023;-70
2022/07/03 04:24:44;;;;;;;10.88;7.45;;;;;;;;;;5100439;28;20128;-70
2022/07/03 04:27:09;;;;;;;8.30;7.50;;;;;;;;;;5100204;28;20055;-69
2022/07/03 04:29:34;;;;;;;8.88;7.57;;;;;;;;;;5100664;28;20328;-70
2022/07/03 04:32:00;;;;;;;8.65;7.63;;;;;;;;;;5098986;28;20024;-69
2022/07/03 04:34:25;;;;;;;10.20;8.00;;;;;;;;;;5100318;28;20028;-68
2022/07/03 04:36:50;;;;;;;7.93;7.15;;;;;;;;;;5099539;28;20023;-68
2022/07/03 04:39:16;;;;;;;11.52;8.10;;;;;;;;;;5098886;28;20023;-68
2022/07/03 04:41:41;;;;;;;8.20;7.50;;;;;;;;;;5101343;28;20422;-70
2022/07/03 04:44:06;;;;;;;7.90;7.13;;;;;;;;;;5099350;28;20114;-70
2022/07/03 04:46:32;;;;;;;8.57;7.22;;;;;;;;;;5100834;28;20051;-70
2022/07/03 04:48:57;;;;;;;10.75;7.65;;;;;;;;;;5100821;28;20026;-72
2022/07/03 04:51:23;;;;;;;8.70;7.50;;;;;;;;;;5099595;28;20138;-71
2022/07/03 04:53:48;;;;;;;9.75;7.30;;;;;;;;;;5100383;28;20055;-71
2022/07/03 04:56:13;;;;;;;8.35;7.25;;;;;;;;;;5100802;27;20034;-69
2022/07/03 04:58:39;;;;;;;8.40;7.43;;;;;;;;;;5098802;28;20016;-70
2022/07/03 05:01:04;;;;;;;9.07;7.50;;;;;;;;;;5100232;28;20028;-70
2022/07/03 05:03:29;;;;;;;8.07;6.60;;;;;;;;;;5101554;28;20462;-68
2022/07/03 05:05:55;;;;;;;9.60;7.18;;;;;;;;;;5098886;27;20469;-68
2022/07/03 05:08:20;;;;;;;8.88;6.82;;;;;;;;;;5100009;28;20019;-71
2022/07/03 05:10:45;;;;;;;9.60;7.00;;;;;;;;;;5100502;28;20085;-68
2022/07/03 05:13:11;;;;;;;8.63;6.80;;;;;;;;;;5099567;28;20342;-68
2022/07/03 05:15:36;;;;;;;8.57;7.00;;;;;;;;;;5099440;28;20029;-69
2022/07/03 05:18:02;;;;;;;7.60;6.88;;;;;;;;;;5097905;28;20030;-68
2022/07/03 05:20:28;;;;;;;8.50;6.90;;;;;;;;;;5097319;28;20416;-71
2022/07/03 05:23:00;;;;;;;7.40;6.78;;;;;;;;;;5099870;28;20035;-71
2022/07/03 05:25:27;;;;;;;10.57;7.18;;;;;;;;;;5098782;28;20039;-70
2022/07/03 05:27:52;;;;;;;6.53;6.00;;;;;;;;;;5088295;28;20030;-70
2022/07/03 05:30:19;;;;;;;7.65;6.95;;;;;;;;;;5088469;28;20012;-70
2022/07/03 05:32:44;;;;;;;6.97;6.30;;;;;;;;;;5089884;28;20028;-71
2022/07/03 05:35:10;;;;;;;7.90;7.13;;;;;;;;;;5097336;28;20108;-71
2022/07/03 05:37:35;;;;;;;7.32;6.50;;;;;;;;;;5096497;28;20054;-70
2022/07/03 05:40:00;;;;;;;10.68;6.78;;;;;;;;;;5093243;28;20019;-70
2022/07/03 05:42:25;;;;;;;7.40;6.68;;;;;;;;;;5088474;28;20092;-68
2022/07/03 05:44:51;;;;;;;7.30;6.60;;;;;;;;;;5088125;28;20035;-70
2022/07/03 05:47:16;;;;;;;7.93;6.88;;;;;;;;;;5088004;28;20028;-70
2022/07/03 05:49:42;;;;;;;9.45;6.38;;;;;;;;;;5088814;28;20110;-71
2022/07/03 05:52:07;;;;;;;10.30;6.50;;;;;;;;;;5087377;28;20047;-68
2022/07/03 05:54:32;;;;;;;8.55;6.55;;;;;;;;;;5088760;28;20024;-68
2022/07/03 05:56:58;;;;;;;7.22;6.53;;;;;;;;;;5087748;28;23555;-70
2022/07/03 05:59:23;;;;;;;6.60;6.00;;;;;;;;;;5087290;28;20143;-70
2022/07/03 06:01:48;;;;;;;6.78;6.18;;;;;;;;;;5085755;28;20044;-71
2022/07/03 06:04:14;;;;;;;7.38;6.28;;;;;;;;;;5087703;28;20032;-69
2022/07/03 06:06:39;;;;;;;6.82;5.78;;;;;;;;;;5087088;28;20130;-71
2022/07/03 06:09:04;;;;;;;6.90;5.55;;;;;;;;;;5079410;28;20023;-70
2022/07/03 06:11:30;;;;;;;7.20;6.50;;;;;;;;;;5087464;28;20047;-70
2022/07/03 06:13:55;;;;;;;6.60;5.57;;;;;;;;;;5089569;28;20034;-71
2022/07/03 06:16:21;;;;;;;6.20;5.40;;;;;;;;;;5091360;28;20024;-70
2022/07/03 06:18:46;;;;;;;6.70;5.95;;;;;;;;;;5098509;28;20445;-69
2022/07/03 06:21:11;;;;;;;6.68;6.18;;;;;;;;;;5098500;28;20028;-68
2022/07/03 06:23:37;;;;;;;6.45;5.20;;;;;;;;;;5088298;28;20495;-70
2022/07/03 06:26:02;;;;;;;6.47;5.38;;;;;;;;;;5098974;28;20032;-70
2022/07/03 06:28:27;;;;;;;6.90;5.18;;;;;;;;;;5092940;28;20015;-69
2022/07/03 06:30:53;;;;;;;10.05;5.68;;;;;;;;;;5092340;28;20028;-69
2022/07/03 06:33:18;;;;;;;6.05;5.40;;;;;;;;;;5093152;28;20031;-70
2022/07/03 06:35:43;;;;;;;6.55;5.70;;;;;;;;;;5088173;28;20542;-71
2022/07/03 06:38:09;;;;;;;7.10;5.05;;;;;;;;;;5087755;28;20106;-71
2022/07/03 06:40:34;;;;;;;5.63;5.13;;;;;;;;;;5094398;28;20023;-70
2022/07/03 06:42:59;;;;;;;6.00;5.32;;;;;;;;;;5090521;28;20036;-69
2022/07/03 06:45:25;;;;;;;6.97;5.40;;;;;;;;;;5090777;28;20024;-69
2022/07/03 06:47:50;;;;;;;5.43;4.93;;;;;;;;;;5096715;28;20031;-70
2022/07/03 06:50:15;;;;;;;6.40;5.80;;;;;;;;;;5096825;28;20414;-69
2022/07/03 06:52:41;;;;;;;6.35;5.65;;;;;;;;;;5096122;28;20047;-70
2022/07/03 06:55:06;;;;;;;6.57;5.53;;;;;;;;;;5098462;28;20028;-69
2022/07/03 06:57:32;;;;;;;5.28;4.85;;;;;;;;;;5098287;28;20423;-68
2022/07/03 06:59:57;;;;;;;5.88;5.40;;;;;;;;;;5106024;28;20427;-69
2022/07/03 07:02:22;;;;;;;6.13;5.57;;;;;;;;;;5111735;28;20461;-70
2022/07/03 07:04:48;;;;;;;5.72;5.13;;;;;;;;;;5113593;28;20357;-71
2022/07/03 07:07:13;;;;;;;7.03;5.30;;;;;;;;;;5098702;28;20031;-69
2022/07/03 07:09:38;;;;;;;8.38;5.72;;;;;;;;;;5093370;28;20107;-69
2022/07/03 07:12:04;;;;;;;6.57;5.40;;;;;;;;;;5092830;28;20412;-71
2022/07/03 07:14:29;;;;;;;5.38;4.88;;;;;;;;;;5112107;28;20623;-69
2022/07/03 07:16:55;;;;;;;7.63;5.45;;;;;;;;;;5113563;28;20027;-70
2022/07/03 07:19:20;;;;;;;5.53;5.03;;;;;;;;;;5113304;28;20016;-71
2022/07/03 07:21:46;;;;;;;5.75;5.20;;;;;;;;;;5112963;28;20080;-72
2022/07/03 07:24:11;;;;;;;5.78;5.22;;;;;;;;;;5114371;28;20028;-70
2022/07/03 07:26:37;;;;;;;6.40;5.50;;;;;;;;;;5117182;28;20016;-70
2022/07/03 07:29:02;;;;;;;5.78;5.28;;;;;;;;;;5117289;28;20441;-70
2022/07/03 07:31:28;;;;;;;6.47;5.45;;;;;;;;;;5117461;28;20019;-71
2022/07/03 07:33:53;;;;;;;8.35;5.25;;;;;;;;;;5116963;28;20096;-70
2022/07/03 07:36:18;;;;;;;8.50;5.75;;;;;;;;;;5115470;28;20058;-71
2022/07/03 07:38:43;;;;;;;5.53;4.90;;;;;;;;;;5102596;28;20027;-71
2022/07/03 07:41:09;;;;;;;5.43;4.78;;;;;;;;;;5116648;28;20027;-71
2022/07/03 07:43:34;;;;;;;6.95;5.30;;;;;;;;;;5117511;28;20437;-70
2022/07/03 07:46:00;;;;;;;8.77;5.80;;;;;;;;;;5116880;28;20015;-70
2022/07/03 07:48:25;;;;;;;5.80;4.85;;;;;;;;;;5116825;28;20061;-70
2022/07/03 07:50:51;;;;;;;8.05;4.93;;;;;;;;;;5116675;28;20068;-70
2022/07/03 07:53:17;;;;;;;6.47;5.18;;;;;;;;;;5117084;28;20466;-71
2022/07/03 07:55:42;;;;;;;6.50;5.40;;;;;;;;;;5116190;28;20024;-71
2022/07/03 07:58:08;;;;;;;6.57;4.95;;;;;;;;;;5116815;28;20031;-71
2022/07/03 08:00:34;;;;;;;5.55;5.10;;;;;;;;;;5116426;28;20123;-70
2022/07/03 08:05:43;;;;;;;5.45;4.88;;;;;;;;;;5116886;28;20077;-71
2022/07/03 08:08:08;;;;;;;5.30;4.85;;;;;;;;;;5114806;28;20039;-71
2022/07/03 08:10:35;;;;;;;6.18;5.68;;;;;;;;;;5099108;28;20031;-72
2022/07/03 08:13:00;;;;;;;5.88;5.28;;;;;;;;;;5097778;28;20028;-72
2022/07/03 08:15:25;;;;;;;5.75;5.22;;;;;;;;;;5090286;28;20016;-71
2022/07/03 08:17:51;;;;;;;6.35;5.70;;;;;;;;;;5089603;28;20057;-71
2022/07/03 08:20:16;;;;;;;5.38;4.97;;;;;;;;;;5091097;28;20024;-71
2022/07/03 08:22:41;;;;;;;5.40;4.90;;;;;;;;;;5091907;28;20511;-72
2022/07/03 08:25:07;;;;;;;5.97;5.20;;;;;;;;;;5092570;28;20481;-71
2022/07/03 08:27:32;;;;;;;5.93;5.20;;;;;;;;;;5089956;28;20379;-73
2022/07/03 08:29:57;;;;;;;5.60;5.07;;;;;;;;;;5089866;28;20036;-71
2022/07/03 08:32:23;;;;;;;5.00;4.60;;;;;;;;;;5091544;28;20031;-71
2022/07/03 08:34:48;;;;;;;7.03;5.20;;;;;;;;;;5094829;28;20051;-72
2022/07/03 08:37:17;;;;;;;6.25;5.65;;;;;;;;;;5089826;28;20031;-71
2022/07/03 08:39:43;;;;;;;5.68;5.10;;;;;;;;;;5090877;28;20028;-73
2022/07/03 08:42:10;;;;;;;6.10;5.38;;;;;;;;;;5090424;28;20089;-72
2022/07/03 08:44:36;;;;;;;5.50;5.00;;;;;;;;;;5087261;28;20031;-72
2022/07/03 08:47:02;;;;;;;6.50;4.72;;;;;;;;;;5091696;28;20038;-72
2022/07/03 08:49:28;;;;;;;5.47;4.97;;;;;;;;;;5098909;28;20027;-72
2022/07/03 08:51:54;;;;;;;6.97;5.13;;;;;;;;;;5098363;28;20615;-71
2022/07/03 08:54:20;;;;;;;5.13;4.55;;;;;;;;;;5093162;28;20107;-72
2022/07/03 08:56:46;;;;;;;6.97;5.18;;;;;;;;;;5093861;28;20114;-71
2022/07/03 08:59:12;;;;;;;6.45;4.90;;;;;;;;;;5093696;28;20662;-71
2022/07/03 09:01:41;;;;;;;5.45;4.95;;;;;;;;;;5099003;28;20558;-71
2022/07/03 09:04:08;;;;;;;8.43;5.18;;;;;;;;;;5087948;28;20168;-71
2022/07/03 09:06:33;;;;;;;5.65;4.70;;;;;;;;;;5087960;28;20062;-72
2022/07/03 09:09:01;;;;;;;5.53;4.60;;;;;;;;;;5088469;28;20055;-72
2022/07/03 09:11:26;;;;;;;5.03;4.63;;;;;;;;;;5089257;28;20019;-72
2022/07/03 09:13:51;;;;;;;7.93;4.53;;;;;;;;;;5097418;28;20036;-70
2022/07/03 09:16:17;;;;;;;4.93;4.53;;;;;;;;;;5087679;28;20032;-71
2022/07/03 09:18:43;;;;;;;6.15;4.93;;;;;;;;;;5090859;28;20045;-72
2022/07/03 09:21:09;;;;;;;6.47;4.38;;;;;;;;;;5096652;28;20059;-71
2022/07/03 09:23:38;;;;;;;4.88;4.47;;;;;;;;;;5099809;28;20133;-71
2022/07/03 09:26:04;;;;;;;8.85;4.50;;;;;;;;;;5100314;28;20024;-72
2022/07/03 09:28:45;;;;;;;5.63;4.97;;;;;;;;;;5098457;28;20027;-72
2022/07/03 09:31:15;;;;;;;5.03;4.53;;;;;;;;;;5101264;28;20458;-72
2022/07/03 09:33:59;;;;;;;6.63;4.65;;;;;;;;;;5090137;28;20097;-72
2022/07/03 09:36:39;;;;;;;6.97;4.93;;;;;;;;;;5099777;28;20032;-72
2022/07/03 09:39:13;;;;;;;4.53;4.22;;;;;;;;;;5099390;28;20028;-72
2022/07/03 09:41:57;;;;;;;5.13;4.50;;;;;;;;;;5079734;28;20122;-71
2022/07/03 09:44:29;;;;;;;5.00;4.50;;;;;;;;;;5091636;28;20031;-71
2022/07/03 09:47:11;;;;;;;6.18;4.68;;;;;;;;;;5089505;28;20104;-73
2022/07/03 09:50:00;;;;;;;5.57;5.00;;;;;;;;;;5100481;28;20015;-75
2022/07/03 09:52:25;;;;;;;;;;;;;;;;;;5090621;28;20142;-74
2022/07/03 09:54:50;;;;;;;5.27;4.80;;;;;;;;;;5089234;28;20026;-73
2022/07/03 09:57:16;;;;;;;5.22;4.28;;;;;;;;;;5088450;28;20024;-75
2022/07/03 09:59:41;;;;;;;5.80;4.38;;;;;;;;;;5087629;28;20446;-72
2022/07/03 10:02:08;;;;;;;4.97;4.50;;;;;;;;;;5084738;28;20062;-73
2022/07/03 10:04:33;;;;;;;14.32;4.45;;;;;;;;;;5091730;28;20023;-72
2022/07/03 10:06:59;;;;;;;6.85;5.30;;;;;;;;;;5099463;28;20341;-72
2022/07/03 10:09:32;;;;;;;5.13;4.72;;;;;;;;;;5099154;28;20042;-72
2022/07/03 10:11:58;;;;;;;5.95;4.80;;;;;;;;;;5099618;28;20462;-72
2022/07/03 10:14:25;;;;;;;9.27;5.45;;;;;;;;;;5099369;28;20434;-72
2022/07/03 10:16:51;;;;;;;5.18;4.68;;;;;;;;;;5087501;28;20044;-71
2022/07/03 10:19:21;;;;;;;5.22;4.65;;;;;;;;;;5088510;28;20035;-72
2022/07/03 10:21:51;;;;;;;5.18;3.90;;;;;;;;;;5090743;28;20031;-73
2022/07/03 10:24:17;;;;;;;5.05;4.35;;;;;;;;;;5084135;28;20032;-75
2022/07/03 10:26:43;;;;;;;5.55;4.53;;;;;;;;;;5086642;28;20559;-73
2022/07/03 10:29:10;;;;;;;6.20;4.47;;;;;;;;;;5093681;28;20024;-74
2022/07/03 10:31:36;;;;;;;4.88;4.30;;;;;;;;;;5092341;28;20490;-72
2022/07/03 10:34:02;;;;;;;5.20;4.70;;;;;;;;;;5111772;28;20404;-74
2022/07/03 10:36:28;;;;;;;5.35;4.88;;;;;;;;;;5112232;28;20047;-73
2022/07/03 10:38:55;;;;;;;5.07;4.68;;;;;;;;;;5101508;28;20058;-73
2022/07/03 10:46:58;;;;;;;7.43;4.90;;;;;;;;;;5113206;28;20042;-73
2022/07/03 10:49:23;;;;;;;5.32;4.85;;;;;;;;;;5113494;28;20020;-73
2022/07/03 10:51:53;;;;;;;4.95;4.55;;;;;;;;;;5109857;28;20051;-74
2022/07/03 10:54:21;;;;;;;5.80;5.22;;;;;;;;;;5102505;28;20024;-73
2022/07/03 10:56:56;;;;;;;6.28;4.63;;;;;;;;;;5113677;28;20038;-73
2022/07/03 10:59:21;;;;;;;5.97;4.57;;;;;;;;;;5113339;28;20026;-72
2022/07/03 11:01:47;;;;;;;4.88;4.35;;;;;;;;;;5111635;28;20040;-72
2022/07/03 11:04:12;;;;;;;5.40;4.90;;;;;;;;;;5105783;28;20039;-72
2022/07/03 11:06:58;;;;;;;5.45;5.05;;;;;;;;;;5113777;28;20016;-72
2022/07/03 11:09:23;;;;;;;5.20;4.72;;;;;;;;;;5097208;28;20123;-72
2022/07/03 11:11:57;;;;;;;5.68;4.55;;;;;;;;;;5114904;28;20118;-73
2022/07/03 11:14:24;;;;;;;4.97;4.47;;;;;;;;;;5115279;28;20035;-73
2022/07/03 11:16:49;;;;;;;13.63;5.32;;;;;;;;;;5115688;28;20114;-75
2022/07/03 11:19:15;;;;;;;7.30;5.38;;;;;;;;;;5110411;28;20510;-74
2022/07/03 11:21:42;;;;;;;7.32;5.40;;;;;;;;;;5108803;28;20039;-72
2022/07/03 11:24:16;;;;;;;5.90;5.40;;;;;;;;;;5029744;27;20052;-71
2022/07/03 11:26:42;;;;;;;5.70;5.20;;;;;;;;;;5030343;28;20139;-71
2022/07/03 11:29:24;;;;;;;7.85;5.60;;;;;;;;;;5025770;28;20100;-74
2022/07/03 11:31:50;;;;;;;5.78;5.18;;;;;;;;;;5028825;28;20458;-72
2022/07/03 11:34:19;;;;;;;6.25;4.75;;;;;;;;;;5029608;28;20021;-72
2022/07/03 11:36:44;;;;;;;9.18;5.80;;;;;;;;;;5029770;28;20669;-69
2022/07/03 11:39:12;;;;;;;18.80;4.95;;;;;;;;;;5025807;28;20025;-72
2022/07/03 11:41:37;;;;;;;4.43;3.65;;;;;;;;;;5029766;28;20055;-71
2022/07/03 11:44:04;;;;;;;4.20;3.90;;;;;;;;;;5027224;28;20448;-71
2022/07/03 11:46:31;;;;;;;5.05;4.55;;;;;;;;;;5029037;28;20025;-71
2022/07/03 11:49:06;;;;;;;3.53;3.00;;;;;;;;;;5029637;28;20071;-72
2022/07/03 11:51:31;;;;;;;3.10;2.80;;;;;;;;;;5033747;28;20048;-71
2022/07/03 11:53:57;;;;;;;7.32;2.95;;;;;;;;;;5031700;28;20038;-73
2022/07/03 11:56:23;;;;;;;6.75;3.80;;;;;;;;;;5027649;28;20032;-71
2022/07/03 11:58:52;;;;;;;4.00;3.67;;;;;;;;;;5034999;28;20029;-73
2022/07/03 12:01:24;;;;;;;9.95;4.50;;;;;;;;;;5043837;28;20032;-73
2022/07/03 12:03:49;;;;;;;6.65;3.97;;;;;;;;;;5039633;28;20075;-72
2022/07/03 12:06:15;;;;;;;7.10;4.90;;;;;;;;;;5029405;28;21220;-71
2022/07/03 12:08:45;;;;;;;4.82;4.03;;;;;;;;;;5025919;28;20021;-73
2022/07/03 12:11:11;;;;;;;7.25;4.25;;;;;;;;;;5030041;28;20024;-71
2022/07/03 12:13:36;;;;;;;6.20;4.78;;;;;;;;;;5029770;28;20039;-71
2022/07/03 12:16:05;;;;;;;5.22;4.72;;;;;;;;;;5036376;28;20071;-71
2022/07/03 12:18:43;;;;;;;5.57;4.80;;;;;;;;;;5041512;28;20102;-72
2022/07/03 12:21:09;;;;;;;5.40;4.47;;;;;;;;;;5042972;28;20025;-71
2022/07/03 12:23:43;;;;;;;8.50;6.00;;;;;;;;;;5042755;28;20043;-72
2022/07/03 12:26:09;;;;;;;5.55;5.05;;;;;;;;;;5040025;28;20440;-72
2022/07/03 12:28:34;;;;;;;7.07;5.40;;;;;;;;;;5023289;28;20040;-74
2022/07/03 12:31:00;;;;;;;7.57;5.13;;;;;;;;;;5036012;28;20029;-73
2022/07/03 12:33:25;;;;;;;5.55;4.97;;;;;;;;;;5030170;28;20092;-73
2022/07/03 12:36:03;;;;;;;5.95;5.45;;;;;;;;;;5028499;28;20021;-75
2022/07/03 12:38:29;;;;;;;5.75;5.22;;;;;;;;;;5026427;28;20031;-74
2022/07/03 12:41:05;;;;;;;6.28;5.75;;;;;;;;;;5027986;28;20028;-72
2022/07/03 12:43:40;;;;;;;6.20;5.60;;;;;;;;;;5028027;28;20029;-75
2022/07/03 12:46:35;;;;;;;6.70;6.15;;;;;;;;;;5029259;28;20040;-75
2022/07/03 12:49:07;;;;;;;5.88;5.38;;;;;;;;;;4967567;28;20042;-74
2022/07/03 12:51:49;;;;;;;8.00;6.30;;;;;;;;;;4967080;28;20054;-72
2022/07/03 12:54:33;;;;;;;6.88;6.22;;;;;;;;;;4966061;28;20097;-72
2022/07/03 13:00:03;;;;;;;6.43;5.82;;;;;;;;;;4971403;28;20469;-73
2022/07/03 13:02:28;;;;;;;8.73;6.43;;;;;;;;;;4973335;28;20034;-73
2022/07/03 13:04:54;;;;;;;7.43;6.72;;;;;;;;;;4967841;28;20037;-73
2022/07/03 13:07:19;;;;;;;8.82;6.53;;;;;;;;;;4976022;28;20034;-74
2022/07/03 13:09:51;;;;;;;6.65;6.03;;;;;;;;;;4982046;28;20034;-75
2022/07/03 13:12:26;;;;;;;8.45;6.75;;;;;;;;;;4981719;28;20050;-75
2022/07/03 13:14:56;;;;;;;9.27;6.60;;;;;;;;;;4981504;28;20034;-75
2022/07/03 13:17:22;;;;;;;7.68;6.28;;;;;;;;;;4981440;28;21002;-73
2022/07/03 13:19:47;;;;;;;7.93;7.10;;;;;;;;;;4978152;28;20050;-72
2022/07/03 13:22:13;;;;;;;8.48;6.95;;;;;;;;;;4963898;28;20254;-73
2022/07/03 13:24:38;;;;;;;7.43;6.72;;;;;;;;;;4977760;28;20120;-74
2022/07/03 13:27:03;;;;;;;7.70;6.95;;;;;;;;;;5026663;28;20045;-73
2022/07/03 13:29:29;;;;;;;7.80;6.15;;;;;;;;;;5028074;28;20079;-74
2022/07/03 13:31:54;;;;;;;7.28;6.35;;;;;;;;;;5029063;28;20036;-75
2022/07/03 13:34:19;;;;;;;7.55;6.88;;;;;;;;;;5028058;28;20028;-74
2022/07/03 13:36:45;;;;;;;7.15;6.47;;;;;;;;;;5027350;28;20079;-73
2022/07/03 13:39:10;;;;;;;7.47;6.68;;;;;;;;;;5028276;28;20029;-74
2022/07/03 13:41:36;;;;;;;13.35;6.78;;;;;;;;;;5026253;28;20054;-74
2022/07/03 13:44:01;;;;;;;7.38;6.68;;;;;;;;;;5027199;28;20025;-75
2022/07/03 13:46:27;;;;;;;7.18;6.03;;;;;;;;;;5026916;28;20036;-74
2022/07/03 13:48:52;;;;;;;7.05;6.35;;;;;;;;;;5028214;28;20037;-73
2022/07/03 13:51:18;;;;;;;6.80;6.00;;;;;;;;;;5033047;28;20035;-72
2022/07/03 13:53:44;;;;;;;7.88;6.50;;;;;;;;;;5040631;28;20110;-73
2022/07/03 13:56:10;;;;;;;9.35;6.53;;;;;;;;;;5028414;28;21124;-74
2022/07/03 13:58:35;;;;;;;8.77;5.82;;;;;;;;;;5033104;28;20031;-74
2022/07/03 14:01:01;;;;;;;7.20;6.43;;;;;;;;;;5038804;28;20411;-73
2022/07/03 14:03:26;;;;;;;8.50;6.32;;;;;;;;;;5032931;28;20462;-73
2022/07/03 14:05:52;;;;;;;7.50;6.75;;;;;;;;;;5026030;28;20033;-73
2022/07/03 14:08:18;;;;;;;7.28;6.60;;;;;;;;;;5036676;28;20484;-74
2022/07/03 14:10:43;;;;;;;7.25;6.47;;;;;;;;;;5034169;28;20463;-74
2022/07/03 14:13:09;;;;;;;7.63;6.82;;;;;;;;;;5030134;28;20112;-76
2022/07/03 14:15:34;;;;;;;7.28;6.57;;;;;;;;;;5039926;28;20443;-75
2022/07/03 14:18:01;;;;;;;7.70;6.95;;;;;;;;;;5040842;28;20036;-74
2022/07/03 14:20:27;;;;;;;7.38;6.65;;;;;;;;;;5040740;28;20116;-73
2022/07/03 14:22:52;;;;;;;10.13;6.60;;;;;;;;;;5039916;28;20127;-74
2022/07/03 14:25:17;;;;;;;9.35;6.80;;;;;;;;;;5038999;28;20095;-75
2022/07/03 14:33:11;;;;;;;7.70;6.85;;;;;;;;;;5040524;28;20085;-75
2022/07/03 14:35:37;;;;;;;7.65;6.72;;;;;;;;;;5041106;28;20028;-75
2022/07/03 14:38:02;;;;;;;9.15;6.82;;;;;;;;;;5041371;28;20029;-74
2022/07/03 14:40:27;;;;;;;9.25;7.72;;;;;;;;;;5039867;28;20364;-75
2022/07/03 14:42:53;;;;;;;8.02;7.32;;;;;;;;;;5040206;28;20028;-73
2022/07/03 14:45:18;;;;;;;7.88;7.07;;;;;;;;;;5026610;28;20611;-73
2022/07/03 14:47:43;;;;;;;9.43;6.47;;;;;;;;;;5026999;28;20416;-72
2022/07/03 14:50:09;;;;;;;7.63;6.90;;;;;;;;;;5032388;28;20029;-73
2022/07/03 14:52:34;;;;;;;6.68;6.05;;;;;;;;;;5040672;28;20053;-74
2022/07/03 14:55:01;;;;;;;6.47;5.97;;;;;;;;;;5038886;28;20178;-73
2022/07/03 14:57:34;;;;;;;7.95;6.95;;;;;;;;;;5041485;28;20446;-73
2022/07/03 15:00:09;;;;;;;7.40;6.70;;;;;;;;;;5028577;28;20021;-74